createdAt,value
2018-08-23T00:01:26.692Z,20.80
2018-08-23T00:03:54.293Z,20.80
2018-08-23T00:06:21.862Z,20.80
2018-08-23T00:08:49.402Z,20.70
2018-08-23T00:11:16.981Z,20.70
2018-08-23T00:13:44.565Z,20.70
2018-08-23T00:16:12.325Z,20.60
2018-08-23T00:18:39.891Z,20.50
2018-08-23T00:21:07.484Z,20.40
2018-08-23T00:23:35.969Z,20.30
2018-08-23T00:26:03.538Z,20.20
2018-08-23T00:28:31.077Z,20.30
2018-08-23T00:30:58.641Z,20.30
2018-08-23T00:33:26.201Z,20.30
2018-08-23T00:35:53.735Z,20.40
2018-08-23T00:38:21.336Z,20.40
2018-08-23T00:40:48.900Z,20.50
2018-08-23T00:43:16.443Z,20.50
2018-08-23T00:45:44.005Z,20.50
2018-08-23T00:48:11.564Z,20.50
2018-08-23T00:50:39.109Z,20.60
2018-08-23T00:53:06.673Z,20.70
2018-08-23T00:55:35.274Z,20.70
2018-08-23T00:58:02.841Z,20.80
2018-08-23T01:00:30.379Z,20.70
2018-08-23T01:02:57.945Z,20.80
2018-08-23T01:05:25.540Z,20.80
2018-08-23T01:07:53.115Z,20.90
2018-08-23T01:10:20.665Z,21.00
2018-08-23T01:12:48.196Z,21.10
2018-08-23T01:15:15.759Z,21.10
2018-08-23T01:17:43.297Z,21.20
2018-08-23T01:20:10.863Z,21.10
2018-08-23T01:22:38.393Z,21.10
2018-08-23T01:25:05.959Z,21.10
2018-08-23T01:27:34.458Z,21.10
2018-08-23T01:30:01.994Z,21.10
2018-08-23T01:32:29.553Z,21.00
2018-08-23T01:34:57.089Z,20.90
2018-08-23T01:37:25.617Z,20.80
2018-08-23T01:39:53.169Z,20.80
2018-08-23T01:42:20.703Z,20.80
2018-08-23T01:44:49.029Z,20.80
2018-08-23T01:47:16.561Z,20.80
2018-08-23T01:49:44.135Z,20.80
2018-08-23T01:52:11.677Z,20.60
2018-08-23T01:54:39.215Z,20.50
2018-08-23T01:57:06.777Z,20.50
2018-08-23T01:59:35.276Z,20.50
2018-08-23T02:02:02.834Z,20.60
2018-08-23T02:04:30.421Z,20.70
2018-08-23T02:06:57.953Z,20.80
2018-08-23T02:09:25.481Z,20.80
2018-08-23T02:11:53.041Z,20.80
2018-08-23T02:14:20.578Z,20.90
2018-08-23T02:16:48.148Z,20.90
2018-08-23T02:19:15.672Z,20.90
2018-08-23T02:21:43.239Z,20.80
2018-08-23T02:24:10.775Z,21.00
2018-08-23T02:26:38.341Z,21.00
2018-08-23T02:29:05.861Z,20.90
2018-08-23T02:31:33.384Z,20.80
2018-08-23T02:34:00.933Z,20.80
2018-08-23T02:36:29.232Z,20.50
2018-08-23T02:38:56.790Z,20.50
2018-08-23T02:41:25.292Z,20.50
2018-08-23T02:43:54.789Z,20.50
2018-08-23T02:46:22.338Z,20.60
2018-08-23T02:48:51.836Z,20.60
2018-08-23T02:51:19.402Z,20.70
2018-08-23T02:53:46.957Z,20.50
2018-08-23T02:56:14.491Z,20.60
2018-08-23T02:58:42.053Z,20.50
2018-08-23T03:01:09.583Z,20.50
2018-08-23T03:03:37.146Z,20.50
2018-08-23T03:06:05.437Z,20.50
2018-08-23T03:08:32.974Z,20.50
2018-08-23T03:11:02.229Z,20.50
2018-08-23T03:13:29.757Z,20.50
2018-08-23T03:15:57.308Z,20.40
2018-08-23T03:18:24.837Z,20.40
2018-08-23T03:20:52.447Z,20.40
2018-08-23T03:23:19.974Z,20.30
2018-08-23T03:25:47.534Z,20.40
2018-08-23T03:28:15.065Z,20.40
2018-08-23T03:30:43.386Z,20.40
2018-08-23T03:33:10.917Z,20.40
2018-08-23T03:35:38.478Z,20.40
2018-08-23T03:38:06.027Z,20.30
2018-08-23T03:40:33.578Z,20.20
2018-08-23T03:43:01.870Z,20.20
2018-08-23T03:45:30.369Z,20.20
2018-08-23T03:47:57.924Z,20.10
2018-08-23T03:50:25.457Z,20.00
2018-08-23T03:52:53.011Z,19.90
2018-08-23T03:55:20.670Z,19.80
2018-08-23T03:57:48.235Z,19.80
2018-08-23T04:00:15.764Z,19.70
2018-08-23T04:02:43.345Z,19.70
2018-08-23T04:05:10.886Z,19.60
2018-08-23T04:07:39.213Z,19.60
2018-08-23T04:10:06.742Z,19.50
2018-08-23T04:12:34.260Z,19.60
2018-08-23T04:15:01.813Z,19.60
2018-08-23T04:17:29.342Z,19.70
2018-08-23T04:19:56.899Z,19.70
2018-08-23T04:22:24.425Z,19.70
2018-08-23T04:24:51.977Z,19.60
2018-08-23T04:27:20.505Z,19.50
2018-08-23T04:29:48.059Z,19.50
2018-08-23T04:32:15.602Z,19.50
2018-08-23T04:34:43.131Z,19.50
2018-08-23T04:37:10.690Z,19.50
2018-08-23T04:39:38.220Z,19.60
2018-08-23T04:42:05.781Z,19.60
2018-08-23T04:44:34.080Z,19.50
2018-08-23T04:47:01.633Z,19.50
2018-08-23T04:49:29.186Z,19.40
2018-08-23T04:51:56.752Z,19.40
2018-08-23T04:54:24.282Z,19.30
2018-08-23T04:56:52.618Z,19.20
2018-08-23T04:59:20.165Z,19.20
2018-08-23T05:01:47.689Z,19.20
2018-08-23T05:04:17.210Z,19.20
2018-08-23T05:06:44.765Z,19.20
2018-08-23T05:09:12.317Z,19.20
2018-08-23T05:11:39.849Z,19.20
2018-08-23T05:14:08.268Z,19.00
2018-08-23T05:16:35.739Z,19.00
2018-08-23T05:19:03.294Z,19.20
2018-08-23T05:21:30.829Z,19.30
2018-08-23T05:23:58.385Z,19.40
2018-08-23T05:26:25.913Z,19.40
2018-08-23T05:28:53.465Z,19.40
2018-08-23T05:31:20.998Z,19.30
2018-08-23T05:33:48.559Z,19.20
2018-08-23T05:36:16.090Z,19.20
2018-08-23T05:38:43.657Z,19.20
2018-08-23T05:41:11.214Z,19.20
2018-08-23T05:43:38.775Z,19.20
2018-08-23T05:46:06.319Z,19.10
2018-08-23T05:48:33.878Z,19.10
2018-08-23T05:51:02.374Z,19.00
2018-08-23T05:53:29.932Z,19.00
2018-08-23T05:55:57.474Z,19.10
2018-08-23T05:58:25.006Z,19.20
2018-08-23T06:00:52.568Z,19.30
2018-08-23T06:03:20.109Z,19.40
2018-08-23T06:05:47.674Z,19.60
2018-08-23T06:08:15.252Z,19.70
2018-08-23T06:10:42.782Z,19.80
2018-08-23T06:13:10.333Z,19.80
2018-08-23T06:15:37.906Z,19.90
2018-08-23T06:18:05.466Z,19.90
2018-08-23T06:20:33.002Z,19.90
2018-08-23T06:23:00.526Z,19.90
2018-08-23T06:25:28.093Z,20.00
2018-08-23T06:27:56.380Z,20.30
2018-08-23T06:30:23.933Z,20.20
2018-08-23T06:32:52.296Z,20.50
2018-08-23T06:35:19.809Z,20.50
2018-08-23T06:37:48.326Z,20.60
2018-08-23T06:40:15.885Z,20.80
2018-08-23T06:42:43.449Z,20.90
2018-08-23T06:45:11.962Z,21.00
2018-08-23T06:47:39.501Z,21.10
2018-08-23T06:50:08.742Z,21.20
2018-08-23T06:52:37.264Z,21.20
2018-08-23T06:55:04.819Z,21.40
2018-08-23T06:57:32.358Z,21.40
2018-08-23T06:59:59.930Z,21.40
2018-08-23T07:02:27.519Z,21.60
2018-08-23T07:04:55.056Z,21.80
2018-08-23T07:07:23.390Z,22.10
2018-08-23T07:09:50.953Z,22.10
2018-08-23T07:12:18.510Z,22.30
2018-08-23T07:14:46.077Z,22.30
2018-08-23T07:17:13.711Z,22.40
2018-08-23T07:19:41.268Z,22.50
2018-08-23T07:22:08.820Z,22.70
2018-08-23T07:24:36.405Z,22.80
2018-08-23T07:27:03.984Z,22.90
2018-08-23T07:29:32.330Z,22.90
2018-08-23T07:32:00.813Z,22.90
2018-08-23T07:34:29.318Z,23.10
2018-08-23T07:36:56.904Z,23.20
2018-08-23T07:39:24.463Z,23.20
2018-08-23T07:41:52.035Z,23.30
2018-08-23T07:44:19.609Z,23.20
2018-08-23T07:46:47.142Z,23.30
2018-08-23T07:49:14.735Z,23.40
2018-08-23T07:51:42.309Z,23.70
2018-08-23T07:54:09.873Z,23.80
2018-08-23T07:56:37.414Z,23.90
2018-08-23T07:59:04.981Z,24.10
2018-08-23T08:01:32.535Z,24.10
2018-08-23T08:04:00.110Z,24.00
2018-08-23T08:06:28.422Z,24.20
2018-08-23T08:08:55.996Z,24.20
2018-08-23T08:11:23.530Z,24.50
2018-08-23T08:13:51.102Z,24.70
2018-08-23T08:16:18.646Z,24.80
2018-08-23T08:18:46.218Z,24.70
2018-08-23T08:21:13.834Z,24.80
2018-08-23T08:23:42.164Z,25.00
2018-08-23T08:26:09.724Z,24.90
2018-08-23T08:28:37.299Z,25.20
2018-08-23T08:31:04.866Z,25.30
2018-08-23T08:33:33.166Z,25.50
2018-08-23T08:36:00.734Z,25.50
2018-08-23T08:38:28.268Z,25.50
2018-08-23T08:40:55.844Z,25.70
2018-08-23T08:43:24.324Z,25.70
2018-08-23T08:45:52.104Z,25.80
2018-08-23T08:48:20.517Z,26.00
2018-08-23T08:50:48.127Z,26.00
2018-08-23T08:53:15.774Z,26.10
2018-08-23T08:55:43.386Z,26.40
2018-08-23T08:58:10.971Z,26.60
2018-08-23T09:00:38.567Z,26.60
2018-08-23T09:03:06.186Z,26.60
2018-08-23T09:05:33.714Z,26.70
2018-08-23T09:08:01.294Z,26.60
2018-08-23T09:10:29.810Z,26.60
2018-08-23T09:12:57.386Z,26.50
2018-08-23T09:15:24.932Z,26.40
2018-08-23T09:17:52.557Z,26.50
2018-08-23T09:20:20.210Z,26.50
2018-08-23T09:22:47.825Z,26.70
2018-08-23T09:25:15.513Z,26.90
2018-08-23T09:27:43.047Z,26.80
2018-08-23T09:30:10.636Z,26.80
2018-08-23T09:32:38.229Z,26.80
2018-08-23T09:35:06.839Z,26.80
2018-08-23T09:37:34.425Z,26.80
2018-08-23T09:40:02.114Z,26.90
2018-08-23T09:42:29.726Z,27.00
2018-08-23T09:45:02.248Z,27.10
2018-08-23T09:47:29.811Z,27.40
2018-08-23T09:49:57.554Z,27.60
2018-08-23T09:52:25.265Z,27.70
2018-08-23T09:54:53.482Z,27.80
2018-08-23T09:57:22.062Z,28.10
2018-08-23T09:59:50.433Z,28.40
2018-08-23T10:05:12.467Z,28.50
2018-08-23T10:07:40.167Z,28.60
2018-08-23T10:10:08.391Z,28.60
2018-08-23T10:12:43.249Z,28.80
2018-08-23T10:18:26.106Z,28.70
2018-08-23T10:20:53.726Z,28.70
2018-08-23T10:23:21.322Z,28.70
2018-08-23T10:25:51.070Z,28.80
2018-08-23T10:28:18.651Z,28.90
2018-08-23T10:30:46.970Z,28.90
2018-08-23T10:33:18.063Z,28.90
2018-08-23T10:35:46.126Z,29.20
2018-08-23T10:38:13.758Z,29.10
2018-08-23T10:40:42.275Z,28.90
2018-08-23T10:43:09.852Z,28.90
2018-08-23T10:45:37.411Z,28.90
2018-08-23T10:48:04.999Z,28.90
2018-08-23T10:50:32.591Z,29.20
2018-08-23T10:53:02.800Z,29.50
2018-08-23T10:55:30.366Z,29.50
2018-08-23T10:57:57.945Z,29.80
2018-08-23T11:00:25.614Z,29.60
2018-08-23T11:02:53.202Z,29.80
2018-08-23T11:05:20.834Z,29.60
2018-08-23T11:07:49.409Z,29.40
2018-08-23T11:13:11.459Z,29.70
2018-08-23T11:15:39.023Z,30.20
2018-08-23T11:18:21.497Z,30.60
2018-08-23T11:20:49.078Z,30.50
2018-08-23T11:23:16.683Z,30.30
2018-08-23T11:25:45.185Z,30.30
2018-08-23T11:28:12.818Z,30.20
2018-08-23T11:33:14.368Z,29.90
2018-08-23T11:35:42.926Z,30.30
2018-08-23T11:38:10.525Z,30.20
2018-08-23T11:40:38.965Z,29.90
2018-08-23T11:43:07.308Z,30.20
2018-08-23T11:45:35.897Z,30.60
2018-08-23T11:48:04.238Z,30.40
2018-08-23T11:50:31.785Z,30.40
2018-08-23T11:52:59.430Z,30.00
2018-08-23T11:55:30.020Z,29.90
2018-08-23T11:57:59.347Z,29.90
2018-08-23T12:00:27.901Z,29.90
2018-08-23T12:02:55.481Z,29.80
2018-08-23T12:05:23.046Z,29.90
2018-08-23T12:07:50.657Z,30.20
2018-08-23T12:10:19.013Z,30.10
2018-08-23T12:12:46.590Z,30.20
2018-08-23T12:15:15.043Z,30.10
2018-08-23T12:17:42.611Z,30.00
2018-08-23T12:20:11.203Z,29.80
2018-08-23T12:22:39.902Z,29.50
2018-08-23T12:25:08.415Z,29.80
2018-08-23T12:27:35.979Z,29.70
2018-08-23T12:30:03.596Z,29.80
2018-08-23T12:32:31.965Z,29.70
2018-08-23T12:34:59.633Z,29.70
2018-08-23T12:37:27.212Z,29.70
2018-08-23T12:42:51.185Z,29.80
2018-08-23T12:45:18.765Z,29.50
2018-08-23T12:47:48.310Z,29.50
2018-08-23T12:50:15.869Z,29.70
2018-08-23T12:52:43.475Z,30.00
2018-08-23T12:55:11.066Z,29.80
2018-08-23T12:57:38.893Z,29.80
2018-08-23T13:00:06.481Z,30.10
2018-08-23T13:02:34.102Z,30.20
2018-08-23T13:05:01.674Z,30.20
2018-08-23T13:07:29.311Z,30.10
2018-08-23T13:09:56.886Z,30.20
2018-08-23T13:12:24.471Z,30.50
2018-08-23T13:14:53.667Z,30.70
2018-08-23T13:17:21.271Z,30.70
2018-08-23T13:19:48.827Z,30.60
2018-08-23T13:22:16.511Z,31.00
2018-08-23T13:24:44.081Z,31.20
2018-08-23T13:27:12.338Z,31.50
2018-08-23T13:29:41.978Z,31.60
2018-08-23T13:32:10.509Z,31.30
2018-08-23T13:34:38.844Z,31.60
2018-08-23T13:37:06.497Z,31.60
2018-08-23T13:39:35.042Z,31.70
2018-08-23T13:42:02.698Z,31.70
2018-08-23T13:44:30.204Z,31.70
2018-08-23T13:46:57.754Z,31.90
2018-08-23T13:49:25.329Z,32.30
2018-08-23T13:51:52.979Z,32.40
2018-08-23T13:54:20.568Z,32.90
2018-08-23T13:56:48.171Z,33.00
2018-08-23T13:59:15.758Z,33.00
2018-08-23T14:01:43.307Z,33.30
2018-08-23T14:04:10.881Z,33.50
2018-08-23T14:06:39.622Z,34.00
2018-08-23T14:09:07.210Z,33.80
2018-08-23T14:11:34.779Z,33.80
2018-08-23T14:14:02.338Z,33.40
2018-08-23T14:16:29.937Z,33.80
2018-08-23T14:18:57.478Z,34.00
2018-08-23T14:21:25.087Z,34.30
2018-08-23T14:23:52.655Z,34.00
2018-08-23T14:26:20.233Z,34.50
2018-08-23T14:28:47.849Z,34.60
2018-08-23T14:31:15.437Z,34.10
2018-08-23T14:33:43.020Z,33.60
2018-08-23T14:36:11.350Z,34.00
2018-08-23T14:38:38.940Z,34.00
2018-08-23T14:41:06.514Z,34.00
2018-08-23T14:43:34.084Z,34.00
2018-08-23T14:46:01.687Z,34.00
2018-08-23T14:48:29.247Z,34.10
2018-08-23T14:50:58.726Z,34.60
2018-08-23T14:53:26.434Z,35.00
2018-08-23T14:55:54.713Z,35.30
2018-08-23T14:58:23.044Z,35.30
2018-08-23T15:00:50.619Z,35.30
2018-08-23T15:03:18.229Z,34.70
2018-08-23T15:05:45.818Z,33.90
2018-08-23T15:08:13.404Z,33.30
2018-08-23T15:10:40.979Z,33.00
2018-08-23T15:13:09.273Z,32.30
2018-08-23T15:15:36.908Z,32.20
2018-08-23T15:18:06.264Z,32.10
2018-08-23T15:20:35.240Z,31.40
2018-08-23T15:23:03.647Z,31.30
2018-08-23T15:25:31.260Z,31.70
2018-08-23T15:27:58.833Z,31.80
2018-08-23T15:30:26.414Z,31.50
2018-08-23T15:32:55.150Z,31.70
2018-08-23T15:35:23.462Z,32.10
2018-08-23T15:37:50.998Z,32.00
2018-08-23T15:40:18.610Z,31.70
2018-08-23T15:42:46.197Z,31.80
2018-08-23T15:45:13.749Z,31.40
2018-08-23T15:47:42.322Z,31.00
2018-08-23T15:50:11.829Z,30.60
2018-08-23T15:52:39.428Z,30.60
2018-08-23T15:55:07.045Z,30.60
2018-08-23T15:57:34.610Z,30.70
2018-08-23T16:00:02.155Z,30.70
2018-08-23T16:02:29.736Z,30.90
2018-08-23T16:04:59.298Z,31.00
2018-08-23T16:07:27.838Z,31.20
2018-08-23T16:09:55.476Z,31.80
2018-08-23T16:12:23.123Z,32.20
2018-08-23T16:14:51.656Z,32.60
2018-08-23T16:20:12.920Z,32.80
2018-08-23T16:22:40.495Z,32.40
2018-08-23T16:25:08.234Z,31.90
2018-08-23T16:27:36.587Z,31.10
2018-08-23T16:30:04.231Z,31.10
2018-08-23T16:32:31.803Z,30.90
2018-08-23T16:34:59.379Z,30.80
2018-08-23T16:37:27.977Z,30.90
2018-08-23T16:39:55.820Z,30.90
2018-08-23T16:42:23.429Z,30.80
2018-08-23T16:44:51.022Z,30.70
2018-08-23T16:47:18.646Z,30.60
2018-08-23T16:49:46.249Z,30.40
2018-08-23T16:52:13.951Z,30.40
2018-08-23T16:54:41.562Z,30.40
2018-08-23T16:57:10.730Z,30.30
2018-08-23T16:59:38.307Z,30.10
2018-08-23T17:02:06.987Z,30.10
2018-08-23T17:04:34.669Z,30.00
2018-08-23T17:07:02.310Z,29.90
2018-08-23T17:09:30.010Z,29.90
2018-08-23T17:11:57.646Z,30.00
2018-08-23T17:14:25.347Z,30.00
2018-08-23T17:16:58.418Z,30.00
2018-08-23T17:19:25.978Z,30.00
2018-08-23T17:21:53.586Z,29.90
2018-08-23T17:24:21.309Z,29.80
2018-08-23T17:26:51.616Z,29.60
2018-08-23T17:29:20.208Z,29.40
2018-08-23T17:31:47.796Z,29.40
2018-08-23T17:34:15.513Z,29.40
2018-08-23T17:36:44.018Z,29.20
2018-08-23T17:39:11.667Z,28.70
2018-08-23T17:41:39.995Z,27.80
2018-08-23T17:44:07.618Z,26.90
2018-08-23T17:46:35.237Z,26.30
2018-08-23T17:49:02.850Z,25.90
2018-08-23T17:51:30.433Z,25.70
2018-08-23T17:53:58.045Z,25.60
2018-08-23T17:56:26.319Z,25.50
2018-08-23T17:58:53.926Z,25.50
2018-08-23T18:01:23.217Z,25.20
2018-08-23T18:03:51.624Z,24.80
2018-08-23T18:06:19.238Z,24.80
2018-08-23T18:08:46.829Z,24.80
2018-08-23T18:11:14.483Z,24.80
2018-08-23T18:13:42.107Z,24.90
2018-08-23T18:16:09.882Z,24.90
2018-08-23T18:18:38.310Z,24.80
2018-08-23T18:21:05.905Z,24.70
2018-08-23T18:23:33.467Z,24.60
2018-08-23T18:26:01.021Z,24.60
2018-08-23T18:28:28.605Z,24.40
2018-08-23T18:30:56.943Z,24.00
2018-08-23T18:33:24.576Z,23.90
2018-08-23T18:35:52.848Z,23.50
2018-08-23T18:38:20.477Z,23.50
2018-08-23T18:40:48.070Z,23.20
2018-08-23T18:43:15.694Z,22.90
2018-08-23T18:45:43.233Z,22.50
2018-08-23T18:48:11.617Z,21.80
2018-08-23T18:50:40.045Z,21.10
2018-08-23T18:53:07.653Z,21.10
2018-08-23T18:55:35.234Z,20.70
2018-08-23T18:58:03.136Z,20.20
2018-08-23T19:00:30.669Z,19.70
2018-08-23T19:02:58.344Z,19.60
2018-08-23T19:05:25.912Z,19.50
2018-08-23T19:07:53.469Z,19.40
2018-08-23T19:10:21.971Z,19.30
2018-08-23T19:12:49.562Z,19.30
2018-08-23T19:15:17.149Z,19.40
2018-08-23T19:17:44.725Z,19.30
2018-08-23T19:20:12.252Z,19.20
2018-08-23T19:22:39.805Z,19.20
2018-08-23T19:25:08.151Z,19.20
2018-08-23T19:27:35.693Z,19.00
2018-08-23T19:30:03.221Z,18.90
2018-08-23T19:32:30.754Z,19.10
2018-08-23T19:34:58.310Z,19.10
2018-08-23T19:37:25.886Z,19.00
2018-08-23T19:39:53.443Z,19.00
2018-08-23T19:42:21.067Z,18.90
2018-08-23T19:44:48.565Z,18.80
2018-08-23T19:50:09.825Z,18.80
2018-08-23T19:52:37.363Z,18.80
2018-08-23T19:55:04.921Z,18.90
2018-08-23T19:57:32.452Z,18.80
2018-08-23T20:00:00.005Z,18.90
2018-08-23T20:02:27.554Z,18.90
2018-08-23T20:04:55.109Z,19.00
2018-08-23T20:07:22.641Z,19.00
2018-08-23T20:09:50.169Z,18.90
2018-08-23T20:12:17.766Z,18.90
2018-08-23T20:14:46.240Z,18.90
2018-08-23T20:17:15.744Z,19.00
2018-08-23T20:19:43.310Z,19.00
2018-08-23T20:22:10.845Z,19.00
2018-08-23T20:24:39.141Z,18.90
2018-08-23T20:27:06.697Z,18.90
2018-08-23T20:29:35.177Z,18.80
2018-08-23T20:32:02.742Z,18.80
2018-08-23T20:34:30.269Z,18.90
2018-08-23T20:36:58.574Z,18.80
2018-08-23T20:39:26.362Z,18.80
2018-08-23T20:41:53.704Z,18.80
2018-08-23T20:44:21.269Z,18.80
2018-08-23T20:46:48.841Z,18.70
2018-08-23T20:49:16.385Z,18.70
2018-08-23T20:51:43.942Z,18.70
2018-08-23T20:54:11.506Z,18.60
2018-08-23T20:56:39.041Z,18.70
2018-08-23T20:59:06.606Z,18.70
2018-08-23T21:01:34.301Z,18.50
2018-08-23T21:04:01.858Z,18.60
2018-08-23T21:06:31.208Z,18.60
2018-08-23T21:08:58.805Z,18.60
2018-08-23T21:11:26.374Z,18.60
2018-08-23T21:13:53.922Z,18.60
2018-08-23T21:16:21.480Z,18.50
2018-08-23T21:18:49.012Z,18.50
2018-08-23T21:21:16.577Z,18.50
2018-08-23T21:23:44.107Z,18.30
2018-08-23T21:26:11.652Z,18.40
2018-08-23T21:28:39.209Z,18.40
2018-08-23T21:31:06.737Z,18.40
2018-08-23T21:33:34.297Z,18.40
2018-08-23T21:36:02.793Z,18.30
2018-08-23T21:38:30.351Z,18.20
2018-08-23T21:40:57.877Z,18.30
2018-08-23T21:43:25.433Z,18.30
2018-08-23T21:45:53.897Z,18.30
2018-08-23T21:48:21.454Z,18.30
2018-08-23T21:50:49.018Z,18.30
2018-08-23T21:53:16.545Z,18.30
2018-08-23T21:55:44.108Z,18.40
2018-08-23T21:58:11.636Z,18.30
2018-08-23T22:00:39.196Z,18.40
2018-08-23T22:03:06.727Z,18.40
2018-08-23T22:05:34.257Z,18.40
2018-08-23T22:08:01.808Z,18.40
2018-08-23T22:10:30.153Z,18.30
2018-08-23T22:12:57.722Z,18.30
2018-08-23T22:15:25.284Z,18.30
2018-08-23T22:17:52.853Z,18.30
2018-08-23T22:20:20.560Z,18.30
2018-08-23T22:22:48.122Z,18.20
2018-08-23T22:25:15.768Z,18.20
2018-08-23T22:27:43.329Z,18.20
2018-08-23T22:30:11.622Z,18.10
2018-08-23T22:32:39.180Z,18.10
2018-08-23T22:35:08.421Z,18.10
2018-08-23T22:37:35.977Z,18.10
2018-08-23T22:40:03.505Z,18.10
2018-08-23T22:42:32.004Z,18.00
2018-08-23T22:44:59.530Z,18.10
2018-08-23T22:47:27.062Z,18.20
2018-08-23T22:49:54.667Z,18.20
2018-08-23T22:52:22.201Z,18.30
2018-08-23T22:54:49.766Z,18.30
2018-08-23T22:57:18.272Z,18.30
2018-08-23T22:59:45.826Z,18.30
2018-08-23T23:02:13.389Z,18.40
2018-08-23T23:04:40.945Z,18.40
2018-08-23T23:07:08.482Z,18.40
2018-08-23T23:09:36.234Z,18.30
2018-08-23T23:12:03.761Z,18.30
2018-08-23T23:14:31.327Z,18.30
2018-08-23T23:16:58.872Z,18.40
2018-08-23T23:19:27.393Z,18.40
2018-08-23T23:21:54.921Z,18.40
2018-08-23T23:24:22.477Z,18.50
2018-08-23T23:26:50.000Z,18.40
2018-08-23T23:29:17.537Z,18.50
2018-08-23T23:31:45.095Z,18.40
2018-08-23T23:34:12.627Z,18.30
2018-08-23T23:36:40.181Z,18.30
2018-08-23T23:39:07.723Z,18.30
2018-08-23T23:41:35.285Z,18.30
2018-08-23T23:44:02.813Z,18.20
2018-08-23T23:46:30.374Z,18.30
2018-08-23T23:48:58.900Z,18.40
2018-08-23T23:51:26.459Z,18.40
2018-08-23T23:53:53.994Z,18.40
2018-08-23T23:56:21.551Z,18.40
2018-08-23T23:58:49.117Z,18.40
